sensor_id;sensor_type;location;lat;lon;timestamp;P1;durP1;ratioP1;P2;durP2;ratioP2
55372;SDS011;70018;47.838;16.490;2024-03-08T00:01:42;38.75;;;17.15;;
55372;SDS011;70018;47.838;16.490;2024-03-08T00:04:11;36.50;;;16.33;;
55372;SDS011;70018;47.838;16.490;2024-03-08T00:06:38;39.85;;;15.57;;
55372;SDS011;70018;47.838;16.490;2024-03-08T00:09:06;40.75;;;17.83;;
55372;SDS011;70018;47.838;16.490;2024-03-08T00:11:34;43.67;;;17.27;;
55372;SDS011;70018;47.838;16.490;2024-03-08T00:14:01;40.63;;;18.17;;
55372;SDS011;70018;47.838;16.490;2024-03-08T00:16:28;42.67;;;16.27;;
55372;SDS011;70018;47.838;16.490;2024-03-08T00:18:55;38.22;;;16.70;;
55372;SDS011;70018;47.838;16.490;2024-03-08T00:21:21;25.38;;;12.68;;
55372;SDS011;70018;47.838;16.490;2024-03-08T00:23:48;37.70;;;17.77;;
55372;SDS011;70018;47.838;16.490;2024-03-08T00:26:15;34.35;;;16.10;;
55372;SDS011;70018;47.838;16.490;2024-03-08T00:28:42;27.70;;;13.23;;
55372;SDS011;70018;47.838;16.490;2024-03-08T00:31:09;39.92;;;17.45;;
55372;SDS011;70018;47.838;16.490;2024-03-08T00:33:36;31.52;;;15.18;;
55372;SDS011;70018;47.838;16.490;2024-03-08T00:36:03;34.47;;;17.33;;
55372;SDS011;70018;47.838;16.490;2024-03-08T00:38:30;33.05;;;16.83;;
55372;SDS011;70018;47.838;16.490;2024-03-08T00:40:58;40.42;;;16.48;;
55372;SDS011;70018;47.838;16.490;2024-03-08T00:43:24;32.20;;;14.10;;
55372;SDS011;70018;47.838;16.490;2024-03-08T00:45:51;32.60;;;15.15;;
55372;SDS011;70018;47.838;16.490;2024-03-08T00:48:18;29.98;;;14.02;;
55372;SDS011;70018;47.838;16.490;2024-03-08T00:50:44;34.13;;;14.40;;
55372;SDS011;70018;47.838;16.490;2024-03-08T00:53:12;39.22;;;18.52;;
55372;SDS011;70018;47.838;16.490;2024-03-08T00:55:39;36.25;;;16.77;;
55372;SDS011;70018;47.838;16.490;2024-03-08T00:58:05;36.15;;;17.25;;
55372;SDS011;70018;47.838;16.490;2024-03-08T01:00:32;34.35;;;15.13;;
55372;SDS011;70018;47.838;16.490;2024-03-08T01:02:59;36.35;;;16.80;;
55372;SDS011;70018;47.838;16.490;2024-03-08T01:05:26;26.20;;;12.75;;
55372;SDS011;70018;47.838;16.490;2024-03-08T01:07:53;23.90;;;11.00;;
55372;SDS011;70018;47.838;16.490;2024-03-08T01:10:19;34.28;;;15.15;;
55372;SDS011;70018;47.838;16.490;2024-03-08T01:12:46;34.25;;;14.90;;
55372;SDS011;70018;47.838;16.490;2024-03-08T01:15:13;36.50;;;16.70;;
55372;SDS011;70018;47.838;16.490;2024-03-08T01:17:40;32.67;;;16.65;;
55372;SDS011;70018;47.838;16.490;2024-03-08T01:20:07;38.25;;;17.33;;
55372;SDS011;70018;47.838;16.490;2024-03-08T01:22:37;35.45;;;17.25;;
55372;SDS011;70018;47.838;16.490;2024-03-08T01:25:04;36.65;;;16.33;;
55372;SDS011;70018;47.838;16.490;2024-03-08T01:27:31;34.42;;;16.23;;
55372;SDS011;70018;47.838;16.490;2024-03-08T01:29:58;43.33;;;16.90;;
55372;SDS011;70018;47.838;16.490;2024-03-08T01:32:26;39.33;;;16.75;;
55372;SDS011;70018;47.838;16.490;2024-03-08T01:34:52;33.10;;;15.68;;
55372;SDS011;70018;47.838;16.490;2024-03-08T01:37:19;39.65;;;16.88;;
55372;SDS011;70018;47.838;16.490;2024-03-08T01:39:46;41.65;;;17.80;;
55372;SDS011;70018;47.838;16.490;2024-03-08T01:42:13;35.63;;;16.42;;
55372;SDS011;70018;47.838;16.490;2024-03-08T01:44:41;42.58;;;18.00;;
55372;SDS011;70018;47.838;16.490;2024-03-08T01:47:10;47.92;;;17.38;;
55372;SDS011;70018;47.838;16.490;2024-03-08T01:49:37;39.13;;;16.45;;
55372;SDS011;70018;47.838;16.490;2024-03-08T01:52:04;25.00;;;12.65;;
55372;SDS011;70018;47.838;16.490;2024-03-08T01:54:32;32.25;;;16.20;;
55372;SDS011;70018;47.838;16.490;2024-03-08T01:56:58;38.15;;;16.10;;
55372;SDS011;70018;47.838;16.490;2024-03-08T01:59:26;35.95;;;14.27;;
55372;SDS011;70018;47.838;16.490;2024-03-08T02:01:57;30.90;;;12.98;;
55372;SDS011;70018;47.838;16.490;2024-03-08T02:04:28;33.92;;;13.25;;
55372;SDS011;70018;47.838;16.490;2024-03-08T02:06:56;35.20;;;14.43;;
55372;SDS011;70018;47.838;16.490;2024-03-08T02:09:26;36.58;;;16.92;;
55372;SDS011;70018;47.838;16.490;2024-03-08T02:11:54;33.85;;;15.23;;
55372;SDS011;70018;47.838;16.490;2024-03-08T02:14:22;36.97;;;17.83;;
55372;SDS011;70018;47.838;16.490;2024-03-08T02:16:49;33.30;;;15.98;;
55372;SDS011;70018;47.838;16.490;2024-03-08T02:19:17;38.55;;;18.55;;
55372;SDS011;70018;47.838;16.490;2024-03-08T02:21:45;40.08;;;17.73;;
55372;SDS011;70018;47.838;16.490;2024-03-08T02:24:13;39.10;;;17.90;;
55372;SDS011;70018;47.838;16.490;2024-03-08T02:26:40;41.78;;;17.70;;
55372;SDS011;70018;47.838;16.490;2024-03-08T02:29:09;44.85;;;18.58;;
55372;SDS011;70018;47.838;16.490;2024-03-08T02:31:35;43.67;;;17.83;;
55372;SDS011;70018;47.838;16.490;2024-03-08T02:34:02;37.25;;;16.45;;
55372;SDS011;70018;47.838;16.490;2024-03-08T02:36:29;39.03;;;17.05;;
55372;SDS011;70018;47.838;16.490;2024-03-08T02:38:56;43.03;;;17.00;;
55372;SDS011;70018;47.838;16.490;2024-03-08T02:41:22;34.88;;;17.02;;
55372;SDS011;70018;47.838;16.490;2024-03-08T02:43:49;31.67;;;13.13;;
55372;SDS011;70018;47.838;16.490;2024-03-08T02:46:16;32.58;;;14.90;;
55372;SDS011;70018;47.838;16.490;2024-03-08T02:48:43;39.28;;;17.65;;
55372;SDS011;70018;47.838;16.490;2024-03-08T02:51:10;44.30;;;16.25;;
55372;SDS011;70018;47.838;16.490;2024-03-08T02:53:37;36.63;;;18.70;;
55372;SDS011;70018;47.838;16.490;2024-03-08T02:56:04;29.27;;;14.13;;
55372;SDS011;70018;47.838;16.490;2024-03-08T02:58:34;34.15;;;14.93;;
55372;SDS011;70018;47.838;16.490;2024-03-08T03:01:01;26.02;;;12.82;;
55372;SDS011;70018;47.838;16.490;2024-03-08T03:03:28;33.78;;;13.63;;
55372;SDS011;70018;47.838;16.490;2024-03-08T03:05:54;17.95;;;8.18;;
55372;SDS011;70018;47.838;16.490;2024-03-08T03:08:24;26.58;;;9.93;;
55372;SDS011;70018;47.838;16.490;2024-03-08T03:10:50;23.80;;;9.65;;
55372;SDS011;70018;47.838;16.490;2024-03-08T03:13:17;25.10;;;11.50;;
55372;SDS011;70018;47.838;16.490;2024-03-08T03:15:46;43.90;;;16.45;;
55372;SDS011;70018;47.838;16.490;2024-03-08T03:18:12;38.20;;;15.82;;
55372;SDS011;70018;47.838;16.490;2024-03-08T03:20:39;38.65;;;17.92;;
55372;SDS011;70018;47.838;16.490;2024-03-08T03:23:08;35.97;;;18.02;;
55372;SDS011;70018;47.838;16.490;2024-03-08T03:25:42;38.47;;;18.20;;
55372;SDS011;70018;47.838;16.490;2024-03-08T03:28:08;37.47;;;16.95;;
55372;SDS011;70018;47.838;16.490;2024-03-08T03:30:37;38.00;;;15.98;;
55372;SDS011;70018;47.838;16.490;2024-03-08T03:33:06;38.50;;;17.20;;
55372;SDS011;70018;47.838;16.490;2024-03-08T03:35:36;39.38;;;18.20;;
55372;SDS011;70018;47.838;16.490;2024-03-08T03:38:04;42.58;;;18.23;;
55372;SDS011;70018;47.838;16.490;2024-03-08T03:40:36;37.53;;;16.70;;
55372;SDS011;70018;47.838;16.490;2024-03-08T03:43:04;35.88;;;17.23;;
55372;SDS011;70018;47.838;16.490;2024-03-08T03:45:31;40.55;;;17.92;;
55372;SDS011;70018;47.838;16.490;2024-03-08T03:48:03;37.03;;;17.13;;
55372;SDS011;70018;47.838;16.490;2024-03-08T03:50:33;38.63;;;18.95;;
55372;SDS011;70018;47.838;16.490;2024-03-08T03:53:02;37.15;;;17.23;;
55372;SDS011;70018;47.838;16.490;2024-03-08T03:55:30;31.15;;;15.45;;
55372;SDS011;70018;47.838;16.490;2024-03-08T03:57:56;36.33;;;17.38;;
55372;SDS011;70018;47.838;16.490;2024-03-08T04:00:25;39.30;;;15.80;;
55372;SDS011;70018;47.838;16.490;2024-03-08T04:02:53;39.72;;;16.02;;
55372;SDS011;70018;47.838;16.490;2024-03-08T04:05:21;22.60;;;10.48;;
55372;SDS011;70018;47.838;16.490;2024-03-08T04:07:48;17.50;;;9.02;;
55372;SDS011;70018;47.838;16.490;2024-03-08T04:10:14;24.15;;;10.73;;
55372;SDS011;70018;47.838;16.490;2024-03-08T04:12:41;17.85;;;7.88;;
55372;SDS011;70018;47.838;16.490;2024-03-08T04:15:08;25.88;;;10.55;;
55372;SDS011;70018;47.838;16.490;2024-03-08T04:17:37;20.33;;;9.38;;
55372;SDS011;70018;47.838;16.490;2024-03-08T04:20:05;22.13;;;9.07;;
55372;SDS011;70018;47.838;16.490;2024-03-08T04:22:36;22.98;;;9.45;;
55372;SDS011;70018;47.838;16.490;2024-03-08T04:25:03;18.38;;;8.88;;
55372;SDS011;70018;47.838;16.490;2024-03-08T04:27:30;24.80;;;8.80;;
55372;SDS011;70018;47.838;16.490;2024-03-08T04:29:56;19.85;;;8.73;;
55372;SDS011;70018;47.838;16.490;2024-03-08T04:32:23;23.73;;;9.65;;
55372;SDS011;70018;47.838;16.490;2024-03-08T04:34:50;17.98;;;8.35;;
55372;SDS011;70018;47.838;16.490;2024-03-08T04:37:17;19.00;;;9.43;;
55372;SDS011;70018;47.838;16.490;2024-03-08T04:39:48;18.40;;;7.60;;
55372;SDS011;70018;47.838;16.490;2024-03-08T04:42:15;20.52;;;9.85;;
55372;SDS011;70018;47.838;16.490;2024-03-08T04:44:44;17.67;;;9.45;;
55372;SDS011;70018;47.838;16.490;2024-03-08T04:47:12;16.55;;;7.68;;
55372;SDS011;70018;47.838;16.490;2024-03-08T04:49:38;24.15;;;10.60;;
55372;SDS011;70018;47.838;16.490;2024-03-08T04:52:05;21.20;;;10.23;;
55372;SDS011;70018;47.838;16.490;2024-03-08T04:54:33;23.23;;;8.60;;
55372;SDS011;70018;47.838;16.490;2024-03-08T04:57:00;26.00;;;9.15;;
55372;SDS011;70018;47.838;16.490;2024-03-08T04:59:31;18.08;;;8.10;;
55372;SDS011;70018;47.838;16.490;2024-03-08T05:01:58;18.83;;;8.32;;
55372;SDS011;70018;47.838;16.490;2024-03-08T05:04:24;21.92;;;8.90;;
55372;SDS011;70018;47.838;16.490;2024-03-08T05:06:51;19.80;;;9.32;;
55372;SDS011;70018;47.838;16.490;2024-03-08T05:09:18;18.17;;;8.48;;
55372;SDS011;70018;47.838;16.490;2024-03-08T05:11:46;21.65;;;9.10;;
55372;SDS011;70018;47.838;16.490;2024-03-08T05:14:13;25.58;;;9.15;;
55372;SDS011;70018;47.838;16.490;2024-03-08T05:16:46;18.35;;;9.80;;
55372;SDS011;70018;47.838;16.490;2024-03-08T05:19:16;21.60;;;8.80;;
55372;SDS011;70018;47.838;16.490;2024-03-08T05:21:45;18.52;;;9.10;;
55372;SDS011;70018;47.838;16.490;2024-03-08T05:24:15;17.55;;;9.15;;
55372;SDS011;70018;47.838;16.490;2024-03-08T05:26:43;22.38;;;10.18;;
55372;SDS011;70018;47.838;16.490;2024-03-08T05:29:11;19.90;;;8.32;;
55372;SDS011;70018;47.838;16.490;2024-03-08T05:31:49;17.17;;;7.75;;
55372;SDS011;70018;47.838;16.490;2024-03-08T05:34:19;15.75;;;7.75;;
55372;SDS011;70018;47.838;16.490;2024-03-08T05:36:46;20.90;;;8.10;;
55372;SDS011;70018;47.838;16.490;2024-03-08T05:39:13;23.45;;;10.10;;
55372;SDS011;70018;47.838;16.490;2024-03-08T05:41:40;20.63;;;9.85;;
55372;SDS011;70018;47.838;16.490;2024-03-08T05:44:07;17.88;;;9.38;;
55372;SDS011;70018;47.838;16.490;2024-03-08T05:49:16;20.80;;;9.88;;
55372;SDS011;70018;47.838;16.490;2024-03-08T05:51:43;26.90;;;12.10;;
55372;SDS011;70018;47.838;16.490;2024-03-08T05:54:10;21.63;;;10.23;;
55372;SDS011;70018;47.838;16.490;2024-03-08T05:56:42;23.98;;;10.07;;
55372;SDS011;70018;47.838;16.490;2024-03-08T05:59:10;30.52;;;11.02;;
55372;SDS011;70018;47.838;16.490;2024-03-08T06:01:37;14.38;;;7.20;;
55372;SDS011;70018;47.838;16.490;2024-03-08T06:04:07;18.35;;;8.43;;
55372;SDS011;70018;47.838;16.490;2024-03-08T06:06:34;23.65;;;9.43;;
55372;SDS011;70018;47.838;16.490;2024-03-08T06:09:01;18.58;;;8.43;;
55372;SDS011;70018;47.838;16.490;2024-03-08T06:11:35;21.67;;;9.27;;
55372;SDS011;70018;47.838;16.490;2024-03-08T06:14:04;18.88;;;8.73;;
55372;SDS011;70018;47.838;16.490;2024-03-08T06:16:30;19.15;;;9.32;;
55372;SDS011;70018;47.838;16.490;2024-03-08T06:18:57;18.75;;;8.45;;
55372;SDS011;70018;47.838;16.490;2024-03-08T06:21:24;18.90;;;8.27;;
55372;SDS011;70018;47.838;16.490;2024-03-08T06:23:54;21.02;;;9.60;;
55372;SDS011;70018;47.838;16.490;2024-03-08T06:26:21;23.55;;;9.85;;
55372;SDS011;70018;47.838;16.490;2024-03-08T06:28:48;30.33;;;10.55;;
55372;SDS011;70018;47.838;16.490;2024-03-08T06:31:15;23.58;;;9.43;;
55372;SDS011;70018;47.838;16.490;2024-03-08T06:33:42;19.80;;;9.80;;
55372;SDS011;70018;47.838;16.490;2024-03-08T06:36:09;19.27;;;9.07;;
55372;SDS011;70018;47.838;16.490;2024-03-08T06:38:38;25.60;;;10.88;;
55372;SDS011;70018;47.838;16.490;2024-03-08T06:41:09;22.00;;;8.95;;
55372;SDS011;70018;47.838;16.490;2024-03-08T06:43:42;21.63;;;8.57;;
55372;SDS011;70018;47.838;16.490;2024-03-08T06:46:09;30.27;;;11.40;;
55372;SDS011;70018;47.838;16.490;2024-03-08T06:48:39;22.08;;;9.70;;
55372;SDS011;70018;47.838;16.490;2024-03-08T06:51:06;22.40;;;10.13;;
55372;SDS011;70018;47.838;16.490;2024-03-08T06:53:33;22.67;;;10.63;;
55372;SDS011;70018;47.838;16.490;2024-03-08T06:56:03;16.02;;;8.50;;
55372;SDS011;70018;47.838;16.490;2024-03-08T06:58:30;19.90;;;8.75;;
55372;SDS011;70018;47.838;16.490;2024-03-08T07:00:57;21.50;;;10.35;;
55372;SDS011;70018;47.838;16.490;2024-03-08T07:03:27;20.13;;;9.05;;
55372;SDS011;70018;47.838;16.490;2024-03-08T07:05:56;20.33;;;10.02;;
55372;SDS011;70018;47.838;16.490;2024-03-08T07:08:25;25.08;;;12.13;;
55372;SDS011;70018;47.838;16.490;2024-03-08T07:10:53;21.40;;;8.82;;
55372;SDS011;70018;47.838;16.490;2024-03-08T07:13:21;27.70;;;11.70;;
55372;SDS011;70018;47.838;16.490;2024-03-08T07:15:48;25.15;;;10.35;;
55372;SDS011;70018;47.838;16.490;2024-03-08T07:18:14;33.70;;;13.35;;
55372;SDS011;70018;47.838;16.490;2024-03-08T07:20:42;25.58;;;12.88;;
55372;SDS011;70018;47.838;16.490;2024-03-08T07:23:10;29.65;;;9.45;;
55372;SDS011;70018;47.838;16.490;2024-03-08T07:25:37;32.53;;;14.52;;
55372;SDS011;70018;47.838;16.490;2024-03-08T07:28:05;34.40;;;11.13;;
55372;SDS011;70018;47.838;16.490;2024-03-08T07:30:37;33.47;;;11.82;;
55372;SDS011;70018;47.838;16.490;2024-03-08T07:33:10;38.30;;;14.98;;
55372;SDS011;70018;47.838;16.490;2024-03-08T07:35:41;28.75;;;11.60;;
55372;SDS011;70018;47.838;16.490;2024-03-08T07:38:11;23.92;;;10.43;;
55372;SDS011;70018;47.838;16.490;2024-03-08T07:40:38;23.05;;;10.30;;
55372;SDS011;70018;47.838;16.490;2024-03-08T07:43:15;20.02;;;9.93;;
55372;SDS011;70018;47.838;16.490;2024-03-08T07:45:42;32.78;;;11.98;;
55372;SDS011;70018;47.838;16.490;2024-03-08T07:48:09;25.60;;;11.27;;
55372;SDS011;70018;47.838;16.490;2024-03-08T07:50:37;27.63;;;10.02;;
55372;SDS011;70018;47.838;16.490;2024-03-08T07:53:06;25.60;;;9.73;;
55372;SDS011;70018;47.838;16.490;2024-03-08T07:55:34;21.65;;;8.77;;
55372;SDS011;70018;47.838;16.490;2024-03-08T07:58:01;16.20;;;8.43;;
55372;SDS011;70018;47.838;16.490;2024-03-08T08:00:32;22.33;;;10.07;;
55372;SDS011;70018;47.838;16.490;2024-03-08T08:02:59;27.52;;;10.27;;
55372;SDS011;70018;47.838;16.490;2024-03-08T08:05:25;17.95;;;7.43;;
55372;SDS011;70018;47.838;16.490;2024-03-08T08:07:52;28.05;;;10.35;;
55372;SDS011;70018;47.838;16.490;2024-03-08T08:10:20;23.60;;;10.05;;
55372;SDS011;70018;47.838;16.490;2024-03-08T08:12:52;17.25;;;8.30;;
55372;SDS011;70018;47.838;16.490;2024-03-08T08:15:19;18.13;;;9.13;;
55372;SDS011;70018;47.838;16.490;2024-03-08T08:17:46;20.98;;;8.45;;
55372;SDS011;70018;47.838;16.490;2024-03-08T08:20:14;13.77;;;6.53;;
55372;SDS011;70018;47.838;16.490;2024-03-08T08:22:42;28.05;;;11.75;;
55372;SDS011;70018;47.838;16.490;2024-03-08T08:25:12;22.80;;;10.07;;
55372;SDS011;70018;47.838;16.490;2024-03-08T08:27:40;16.67;;;8.05;;
55372;SDS011;70018;47.838;16.490;2024-03-08T08:30:06;21.75;;;8.85;;
55372;SDS011;70018;47.838;16.490;2024-03-08T08:32:35;19.35;;;9.68;;
55372;SDS011;70018;47.838;16.490;2024-03-08T08:35:11;17.90;;;8.10;;
55372;SDS011;70018;47.838;16.490;2024-03-08T08:37:39;16.33;;;6.57;;
55372;SDS011;70018;47.838;16.490;2024-03-08T08:40:06;8.60;;;3.63;;
55372;SDS011;70018;47.838;16.490;2024-03-08T08:42:41;8.32;;;4.35;;
55372;SDS011;70018;47.838;16.490;2024-03-08T08:45:08;23.08;;;9.98;;
55372;SDS011;70018;47.838;16.490;2024-03-08T08:47:43;11.77;;;5.53;;
55372;SDS011;70018;47.838;16.490;2024-03-08T08:50:13;21.23;;;8.02;;
55372;SDS011;70018;47.838;16.490;2024-03-08T08:52:40;19.30;;;7.60;;
55372;SDS011;70018;47.838;16.490;2024-03-08T08:55:10;24.60;;;9.18;;
55372;SDS011;70018;47.838;16.490;2024-03-08T08:57:41;23.33;;;9.73;;
55372;SDS011;70018;47.838;16.490;2024-03-08T09:00:08;18.10;;;8.38;;
55372;SDS011;70018;47.838;16.490;2024-03-08T09:02:41;13.82;;;8.20;;
55372;SDS011;70018;47.838;16.490;2024-03-08T09:05:08;25.23;;;9.57;;
55372;SDS011;70018;47.838;16.490;2024-03-08T09:07:35;17.88;;;7.93;;
55372;SDS011;70018;47.838;16.490;2024-03-08T09:10:02;19.63;;;9.00;;
55372;SDS011;70018;47.838;16.490;2024-03-08T09:12:43;26.33;;;10.98;;
55372;SDS011;70018;47.838;16.490;2024-03-08T09:15:10;17.30;;;8.27;;
55372;SDS011;70018;47.838;16.490;2024-03-08T09:17:40;21.30;;;7.88;;
55372;SDS011;70018;47.838;16.490;2024-03-08T09:20:08;21.33;;;10.00;;
55372;SDS011;70018;47.838;16.490;2024-03-08T09:22:36;16.30;;;7.00;;
55372;SDS011;70018;47.838;16.490;2024-03-08T09:25:03;17.35;;;7.55;;
55372;SDS011;70018;47.838;16.490;2024-03-08T09:27:31;21.58;;;7.30;;
55372;SDS011;70018;47.838;16.490;2024-03-08T09:29:58;20.85;;;8.07;;
55372;SDS011;70018;47.838;16.490;2024-03-08T09:32:24;14.30;;;6.22;;
55372;SDS011;70018;47.838;16.490;2024-03-08T09:34:52;20.33;;;9.13;;
55372;SDS011;70018;47.838;16.490;2024-03-08T09:37:19;15.93;;;7.22;;
55372;SDS011;70018;47.838;16.490;2024-03-08T09:39:46;22.30;;;9.95;;
55372;SDS011;70018;47.838;16.490;2024-03-08T09:42:13;14.75;;;5.18;;
55372;SDS011;70018;47.838;16.490;2024-03-08T09:44:47;17.70;;;8.13;;
55372;SDS011;70018;47.838;16.490;2024-03-08T09:47:14;12.30;;;5.68;;
55372;SDS011;70018;47.838;16.490;2024-03-08T09:49:41;16.98;;;7.30;;
55372;SDS011;70018;47.838;16.490;2024-03-08T09:52:09;27.75;;;12.10;;
55372;SDS011;70018;47.838;16.490;2024-03-08T09:54:39;16.90;;;6.95;;
55372;SDS011;70018;47.838;16.490;2024-03-08T09:57:06;18.83;;;7.60;;
55372;SDS011;70018;47.838;16.490;2024-03-08T09:59:35;15.45;;;7.47;;
55372;SDS011;70018;47.838;16.490;2024-03-08T10:02:02;16.70;;;6.55;;
55372;SDS011;70018;47.838;16.490;2024-03-08T10:04:29;12.32;;;6.75;;
55372;SDS011;70018;47.838;16.490;2024-03-08T10:06:57;14.43;;;6.93;;
55372;SDS011;70018;47.838;16.490;2024-03-08T10:09:25;12.40;;;5.20;;
55372;SDS011;70018;47.838;16.490;2024-03-08T10:11:55;18.13;;;7.53;;
55372;SDS011;70018;47.838;16.490;2024-03-08T10:14:24;13.77;;;5.88;;
55372;SDS011;70018;47.838;16.490;2024-03-08T10:16:53;21.02;;;10.70;;
55372;SDS011;70018;47.838;16.490;2024-03-08T10:19:20;15.82;;;6.53;;
55372;SDS011;70018;47.838;16.490;2024-03-08T10:21:50;11.98;;;5.53;;
55372;SDS011;70018;47.838;16.490;2024-03-08T10:24:19;14.18;;;6.13;;
55372;SDS011;70018;47.838;16.490;2024-03-08T10:26:46;16.60;;;7.88;;
55372;SDS011;70018;47.838;16.490;2024-03-08T10:29:14;20.17;;;7.40;;
55372;SDS011;70018;47.838;16.490;2024-03-08T10:31:43;20.45;;;8.80;;
55372;SDS011;70018;47.838;16.490;2024-03-08T10:34:13;12.10;;;5.72;;
55372;SDS011;70018;47.838;16.490;2024-03-08T10:36:40;12.35;;;5.72;;
55372;SDS011;70018;47.838;16.490;2024-03-08T10:39:12;17.25;;;7.93;;
55372;SDS011;70018;47.838;16.490;2024-03-08T10:41:52;14.35;;;6.90;;
55372;SDS011;70018;47.838;16.490;2024-03-08T10:47:03;9.65;;;5.50;;
55372;SDS011;70018;47.838;16.490;2024-03-08T10:50:10;17.15;;;6.70;;
55372;SDS011;70018;47.838;16.490;2024-03-08T10:52:50;15.75;;;5.53;;
55372;SDS011;70018;47.838;16.490;2024-03-08T10:55:18;11.25;;;5.70;;
55372;SDS011;70018;47.838;16.490;2024-03-08T10:57:47;15.38;;;7.60;;
55372;SDS011;70018;47.838;16.490;2024-03-08T11:00:29;10.80;;;5.68;;
55372;SDS011;70018;47.838;16.490;2024-03-08T11:02:57;9.85;;;4.25;;
55372;SDS011;70018;47.838;16.490;2024-03-08T11:05:42;14.82;;;6.43;;
55372;SDS011;70018;47.838;16.490;2024-03-08T11:08:19;8.90;;;4.35;;
55372;SDS011;70018;47.838;16.490;2024-03-08T11:10:50;12.63;;;5.32;;
55372;SDS011;70018;47.838;16.490;2024-03-08T11:13:35;12.52;;;5.65;;
55372;SDS011;70018;47.838;16.490;2024-03-08T11:16:13;8.75;;;3.60;;
55372;SDS011;70018;47.838;16.490;2024-03-08T11:18:59;14.20;;;5.78;;
55372;SDS011;70018;47.838;16.490;2024-03-08T11:21:31;14.18;;;5.43;;
55372;SDS011;70018;47.838;16.490;2024-03-08T11:24:06;14.00;;;5.75;;
55372;SDS011;70018;47.838;16.490;2024-03-08T11:26:35;9.55;;;4.93;;
55372;SDS011;70018;47.838;16.490;2024-03-08T11:32:17;10.60;;;5.45;;
55372;SDS011;70018;47.838;16.490;2024-03-08T11:34:49;4.63;;;2.72;;
55372;SDS011;70018;47.838;16.490;2024-03-08T11:37:17;8.32;;;4.28;;
55372;SDS011;70018;47.838;16.490;2024-03-08T11:39:48;11.88;;;5.65;;
55372;SDS011;70018;47.838;16.490;2024-03-08T11:42:16;10.43;;;5.32;;
55372;SDS011;70018;47.838;16.490;2024-03-08T11:44:44;8.05;;;4.18;;
55372;SDS011;70018;47.838;16.490;2024-03-08T11:47:11;9.70;;;6.03;;
55372;SDS011;70018;47.838;16.490;2024-03-08T11:49:38;7.78;;;4.05;;
55372;SDS011;70018;47.838;16.490;2024-03-08T11:52:11;7.57;;;3.58;;
55372;SDS011;70018;47.838;16.490;2024-03-08T11:54:41;13.07;;;5.30;;
55372;SDS011;70018;47.838;16.490;2024-03-08T11:57:09;8.55;;;4.00;;
55372;SDS011;70018;47.838;16.490;2024-03-08T11:59:37;8.60;;;4.47;;
55372;SDS011;70018;47.838;16.490;2024-03-08T12:02:04;8.00;;;4.13;;
55372;SDS011;70018;47.838;16.490;2024-03-08T12:04:32;9.27;;;5.22;;
55372;SDS011;70018;47.838;16.490;2024-03-08T12:07:00;8.57;;;5.43;;
55372;SDS011;70018;47.838;16.490;2024-03-08T12:09:35;8.60;;;3.70;;
55372;SDS011;70018;47.838;16.490;2024-03-08T12:12:02;10.32;;;5.75;;
55372;SDS011;70018;47.838;16.490;2024-03-08T12:14:30;10.40;;;4.72;;
55372;SDS011;70018;47.838;16.490;2024-03-08T12:16:58;9.52;;;4.57;;
55372;SDS011;70018;47.838;16.490;2024-03-08T12:19:25;14.20;;;5.88;;
55372;SDS011;70018;47.838;16.490;2024-03-08T12:21:51;12.32;;;5.43;;
55372;SDS011;70018;47.838;16.490;2024-03-08T12:24:18;8.43;;;4.07;;
55372;SDS011;70018;47.838;16.490;2024-03-08T12:26:46;13.27;;;6.15;;
55372;SDS011;70018;47.838;16.490;2024-03-08T12:29:15;7.78;;;4.20;;
55372;SDS011;70018;47.838;16.490;2024-03-08T12:31:44;12.82;;;5.88;;
55372;SDS011;70018;47.838;16.490;2024-03-08T12:34:11;9.38;;;4.30;;
55372;SDS011;70018;47.838;16.490;2024-03-08T12:36:49;13.68;;;6.03;;
55372;SDS011;70018;47.838;16.490;2024-03-08T12:39:21;11.40;;;4.93;;
55372;SDS011;70018;47.838;16.490;2024-03-08T12:41:49;5.78;;;3.05;;
55372;SDS011;70018;47.838;16.490;2024-03-08T12:44:18;10.00;;;4.97;;
55372;SDS011;70018;47.838;16.490;2024-03-08T12:46:48;6.80;;;3.20;;
55372;SDS011;70018;47.838;16.490;2024-03-08T12:49:18;7.53;;;3.97;;
55372;SDS011;70018;47.838;16.490;2024-03-08T12:51:48;8.73;;;4.38;;
55372;SDS011;70018;47.838;16.490;2024-03-08T12:54:15;9.43;;;3.95;;
55372;SDS011;70018;47.838;16.490;2024-03-08T12:56:43;5.93;;;3.50;;
55372;SDS011;70018;47.838;16.490;2024-03-08T12:59:09;9.50;;;5.35;;
55372;SDS011;70018;47.838;16.490;2024-03-08T13:01:36;6.75;;;3.55;;
55372;SDS011;70018;47.838;16.490;2024-03-08T13:04:04;7.65;;;4.07;;
55372;SDS011;70018;47.838;16.490;2024-03-08T13:06:32;9.82;;;5.28;;
55372;SDS011;70018;47.838;16.490;2024-03-08T13:08:59;11.35;;;5.15;;
55372;SDS011;70018;47.838;16.490;2024-03-08T13:11:31;9.43;;;3.88;;
55372;SDS011;70018;47.838;16.490;2024-03-08T13:14:03;8.57;;;4.63;;
55372;SDS011;70018;47.838;16.490;2024-03-08T13:16:33;11.68;;;4.68;;
55372;SDS011;70018;47.838;16.490;2024-03-08T13:19:01;10.05;;;5.10;;
55372;SDS011;70018;47.838;16.490;2024-03-08T13:21:28;6.93;;;3.47;;
55372;SDS011;70018;47.838;16.490;2024-03-08T13:23:56;10.32;;;5.35;;
55372;SDS011;70018;47.838;16.490;2024-03-08T13:26:25;7.15;;;4.32;;
55372;SDS011;70018;47.838;16.490;2024-03-08T13:28:56;10.63;;;4.43;;
55372;SDS011;70018;47.838;16.490;2024-03-08T13:31:24;5.63;;;3.30;;
55372;SDS011;70018;47.838;16.490;2024-03-08T13:33:51;7.85;;;3.40;;
55372;SDS011;70018;47.838;16.490;2024-03-08T13:36:24;9.82;;;4.35;;
55372;SDS011;70018;47.838;16.490;2024-03-08T13:38:55;5.50;;;3.22;;
55372;SDS011;70018;47.838;16.490;2024-03-08T13:41:25;5.18;;;2.90;;
55372;SDS011;70018;47.838;16.490;2024-03-08T13:43:53;4.50;;;2.80;;
55372;SDS011;70018;47.838;16.490;2024-03-08T13:46:22;5.40;;;2.42;;
55372;SDS011;70018;47.838;16.490;2024-03-08T13:48:50;9.13;;;4.25;;
55372;SDS011;70018;47.838;16.490;2024-03-08T13:51:20;8.30;;;3.33;;
55372;SDS011;70018;47.838;16.490;2024-03-08T13:53:48;7.00;;;3.25;;
55372;SDS011;70018;47.838;16.490;2024-03-08T13:56:15;7.90;;;3.95;;
55372;SDS011;70018;47.838;16.490;2024-03-08T13:58:42;6.55;;;3.78;;
55372;SDS011;70018;47.838;16.490;2024-03-08T14:01:10;3.67;;;2.45;;
55372;SDS011;70018;47.838;16.490;2024-03-08T14:03:39;7.25;;;3.45;;
55372;SDS011;70018;47.838;16.490;2024-03-08T14:06:09;4.75;;;2.72;;
55372;SDS011;70018;47.838;16.490;2024-03-08T14:08:51;6.63;;;4.03;;
55372;SDS011;70018;47.838;16.490;2024-03-08T14:11:19;8.20;;;4.38;;
55372;SDS011;70018;47.838;16.490;2024-03-08T14:13:46;7.97;;;4.53;;
55372;SDS011;70018;47.838;16.490;2024-03-08T14:16:13;9.23;;;4.15;;
55372;SDS011;70018;47.838;16.490;2024-03-08T14:18:41;5.47;;;2.95;;
55372;SDS011;70018;47.838;16.490;2024-03-08T14:21:08;8.25;;;3.58;;
55372;SDS011;70018;47.838;16.490;2024-03-08T14:23:35;6.43;;;3.35;;
55372;SDS011;70018;47.838;16.490;2024-03-08T14:26:05;6.05;;;3.35;;
55372;SDS011;70018;47.838;16.490;2024-03-08T14:28:34;5.95;;;3.08;;
55372;SDS011;70018;47.838;16.490;2024-03-08T14:31:01;6.18;;;3.30;;
55372;SDS011;70018;47.838;16.490;2024-03-08T14:33:32;6.10;;;2.95;;
55372;SDS011;70018;47.838;16.490;2024-03-08T14:35:59;6.47;;;3.45;;